Aktuální počasí v Česku a ve světě - METAR

Seznam meteostanic umístěných nejčasteji na letišti v ČR a ve světě

Vyhledat místa podle abecedy:
A B C D E F G H I J K L M N O P Q R S T U V W X Y Z

Filtrovat:

ID stanice:
a/nebo
Název místa (fulltext):
 
Místo (ID)Naposledy načteno 
Brussels (EBBR) 05.03.2021 09:50 UTC Zobrazit METAR
EBBR 050950Z 06011KT CAVOK 03/M05 Q1029 NOSIG
Bucharest (LRBS) 05.03.2021 10:00 UTC Zobrazit METAR
LRBS 051000Z 25006KT CAVOK 15/M02 Q1013 NOSIG
Budapest (LHBP) 05.03.2021 10:00 UTC Zobrazit METAR
LHBP 051000Z 29013KT 9999 FEW036 11/03 Q1012 NOSIG
Buenos Aires (SABE) 05.03.2021 10:00 UTC Zobrazit METAR
SABE 051000Z 18008KT 9999 BKN018 20/17 Q1012 NOSIG
Bujumbura (HBBA) 05.03.2021 09:00 UTC Zobrazit METAR
HBBA 050900Z 09002KT 8000 FEW025 BKN100 28/21 Q1013 NOSIG
Burgas (LBBG) 05.03.2021 10:00 UTC Zobrazit METAR
LBBG 051000Z 27016KT CAVOK 14/08 Q1015 NOSIG
Bydgoszcz (EPBY) 05.03.2021 10:00 UTC Zobrazit METAR
EPBY 051000Z 34009KT 300V360 9999 FEW023 OVC048 02/M03 Q1021
Cairo (HECA) 05.03.2021 09:00 UTC Zobrazit METAR
HECA 050900Z 01003KT 9999 FEW025 17/08 Q1025 NOSIG
Canberra (YSCB) 05.03.2021 10:00 UTC Zobrazit METAR
YSCB 051000Z AUTO 10010KT 9999 // SCT071 15/08 Q1011
Caracas (SVMP) Zatím nenačteno  
Cayenne (SOCA) 05.03.2021 10:00 UTC Zobrazit METAR
SOCA 051000Z AUTO 00000KT CAVOK 23/23 Q1011 TEMPO 3000 SHRA SCT015TCU
Charlotte Amalie (TIST) 05.03.2021 09:53 UTC Zobrazit METAR
TIST 050953Z AUTO 14005KT 10SM CLR 24/19 A2995 RMK AO2 SLP144 T02440194
Chisinau (LUKK) 05.03.2021 10:00 UTC Zobrazit METAR
LUKK 051000Z 13005KT 090V180 CAVOK 11/03 Q1012 R08/CLRD// NOSIG
Colombo (VCBI) 05.03.2021 08:10 UTC Zobrazit METAR
VCBI 050810Z VRB05KT 9999 SCT017 32/23 Q1011 NOSIG
Conakry (GUCY) 05.03.2021 10:00 UTC Zobrazit METAR
GUCY 051000Z 00000KT 5000 HZ SCT015 29/24 Q1011 NOSIG
Constanta (LRCK) 05.03.2021 10:00 UTC Zobrazit METAR
LRCK 051000Z 26010KT CAVOK 14/01 Q1013 NOSIG
Constantine (DABC) 05.03.2021 10:00 UTC Zobrazit METAR
DABC 051000Z 07003KT 010V120 9999 FEW013 SCT023 12/08 Q1017
Copenhagen (EKCH) 04.03.2021 13:50 UTC Zobrazit METAR
EKCH 041350Z AUTO 35012KT 9999 FEW044/// 05/M03 Q1018 NOSIG
Cork (EICK) 05.03.2021 10:00 UTC Zobrazit METAR
EICK 051000Z 11012KT 9999 FEW020 BKN035 07/01 Q1030 NOSIG
Cotonou (DBBB) 05.03.2021 10:00 UTC Zobrazit METAR
DBBB 051000Z 23013KT 9999 SCT013 32/27 Q1010 NOSIG
Curacao Island (TNCC) 05.03.2021 10:00 UTC Zobrazit METAR
TNCC 051000Z 11006KT 9999 FEW019 25/22 Q1012 NOSIG
Dakar (GOOY) 05.03.2021 10:00 UTC Zobrazit METAR
GOOY 051000Z 36012KT CAVOK 21/17 Q1011
Damascus (OSDI) 05.03.2021 10:00 UTC Zobrazit METAR
OSDI 051000Z 00000KT CAVOK 18/M02 Q1021
Debrecen (LHDC) 05.03.2021 09:45 UTC Zobrazit METAR
LHDC 050945Z AUTO 22010KT 7000 NSC 09/03 Q1012 BECMG 27011KT
Delhi (VIDP) 05.03.2021 10:00 UTC Zobrazit METAR
VIDP 051000Z 29008G18KT 5000 HZ NSC 30/10 Q1011 NOSIG
Dhaka (VGZR) Zatím nenačteno  
Diego Garcia (FJDG) 05.03.2021 09:55 UTC Zobrazit METAR
FJDG 050955Z 28009KT 9999 FEW020 SCT250 32/26 A2980 RMK SLP088 T03180257
Djibouti (HDAM) 04.03.2021 23:00 UTC Zobrazit METAR
HDAM 042300Z 20004KT 9999 SCT020 25/22 Q1015
Dnipropetrovs'k (UKDD) 12.08.2013 14:00 UTC Zobrazit METAR
UKDD 121400Z CAVOK 33/13 Q1012 08090070 NOSIG
Dodoma (HTDO) 05.03.2021 09:00 UTC Zobrazit METAR
HTDO 050900Z 09005KT 9999 FEW028 BKN100 27/18 Q1017 NOSIG
Doha (OTBD) 05.03.2021 10:00 UTC Zobrazit METAR
OTBD 051000Z 31015KT 7000 NSC 29/14 Q1014 NOSIG
Dortmund (EDLW) 05.03.2021 09:50 UTC Zobrazit METAR
EDLW 050950Z 06005KT 020V090 9999 FEW012 SCT014 BKN024 01/M03 Q1027
Dresden (EDDC) 05.03.2021 09:50 UTC Zobrazit METAR
EDDC 050950Z 02010KT 350V060 9999 SCT025 01/M05 Q1023 NOSIG
Dublin (EIDW) 05.03.2021 10:00 UTC Zobrazit METAR
EIDW 051000Z 11009KT 080V140 9999 FEW015 BKN030 05/M03 Q1033 NOSIG
Dubrovnik (LDDU) 05.03.2021 10:00 UTC Zobrazit METAR
LDDU 051000Z 13015KT 9999 FEW027 14/05 Q1019 NOSIG
Dushanbe (UTDD) Zatím nenačteno  
Dusseldorf (EDDL) 05.03.2021 09:50 UTC Zobrazit METAR
EDDL 050950Z 02010KT 9999 FEW020 03/M03 Q1028 NOSIG
Dzaoudzi (FMCZ) 05.03.2021 10:00 UTC Zobrazit METAR
FMCZ 051000Z AUTO 33016KT 9999 SCT022 SCT035 31/25 Q1008 BECMG SCT024TCU BKN040 BKN054
Edinburgh (EGPH) 05.03.2021 09:50 UTC Zobrazit METAR
EGPH 050950Z VRB03KT 9999 OVC032 03/M03 Q1035
Eindhoven (EHEH) 05.03.2021 03:45 UTC Zobrazit METAR
EHEH 050345Z AUTO 01007KT 9999 FEW012 SCT016 01/M00 Q1025 WHT
Entebbe (HUEN) 04.03.2021 08:00 UTC Zobrazit METAR
HUEN 040800Z 17014KT 9999 FEW023 27/18 Q1017
Esbjerg (EKEB) 04.03.2021 15:50 UTC Zobrazit METAR
EKEB 041550Z AUTO 01011KT 9999 FEW048/// 05/M05 Q1021
Faro (LPFR) 05.03.2021 07:00 UTC Zobrazit METAR
LPFR 050700Z 01005KT CAVOK 11/11 Q1011
Florence (LIRQ) 05.03.2021 09:50 UTC Zobrazit METAR
LIRQ 050950Z VRB02KT 9999 FEW030 14/08 Q1018
Foggia, Gino Lisa (LIBF) 05.03.2021 09:50 UTC Zobrazit METAR
LIBF 050950Z 30007KT 270V330 CAVOK 14/04 Q1018
Fort de France (TFFF) 05.03.2021 10:00 UTC Zobrazit METAR
TFFF 051000Z AUTO 09005KT 9999 FEW026 SCT052 BKN064 24/21 Q1014
Frankfurt/ Main (EDDF) 05.03.2021 09:50 UTC Zobrazit METAR
EDDF 050950Z 02015KT 9999 FEW018 SCT025 05/M01 Q1025 NOSIG
Freetown (GFLL) 05.03.2021 08:00 UTC Zobrazit METAR
GFLL 050800Z 30008KT 4000 RA BKN010 FEW026 25/21 Q1009 RMK CB SE
Funafuti (NGFU) 03.03.2021 01:00 UTC Zobrazit METAR
NGFU 030100Z 05008KT 9999 FEW020 SCT100 32/25 Q1009
Gaborone (FBSK) 05.03.2021 10:00 UTC Zobrazit METAR
FBSK 051000Z 13003KT 070V240 9999 FEW030 30/13 Q1016 NOSIG
Předchozí 1 2 3 4 5 ... 9 Další
Reklama

Reklama


Počasí na Váš email

Emaily jsou bez reklamy a bez spamu



Odhlásit newsletter



Další české internetové stránky (nejen) o počasí najdete v katalogu TOPlist - weby o počasí nebo vyhledejte na internetu, co jste tu na 🌞 Slunečnu ⛅ zatím nenašli:
⭐ Přidat Slunečno.cz do oblíbených | 🏠 Nastavit Slunečno.cz jako HOMEPAGE

⬆️ Posunout stránku nahoru ⬆️
Reklama